sensor_id;sensor_type;location;lat;lon;timestamp;temperature;humidity
23991;DHT22;12205;50.600;4.608;2024-03-25T00:00:45;3.10;99.90
23991;DHT22;12205;50.600;4.608;2024-03-25T00:03:11;3.10;99.90
23991;DHT22;12205;50.600;4.608;2024-03-25T00:05:38;3.10;99.90
23991;DHT22;12205;50.600;4.608;2024-03-25T00:08:04;3.10;99.90
23991;DHT22;12205;50.600;4.608;2024-03-25T00:10:31;3.20;99.90
23991;DHT22;12205;50.600;4.608;2024-03-25T00:12:57;3.10;99.90
23991;DHT22;12205;50.600;4.608;2024-03-25T00:15:24;3.20;99.90
23991;DHT22;12205;50.600;4.608;2024-03-25T00:17:52;3.10;99.90
23991;DHT22;12205;50.600;4.608;2024-03-25T00:20:18;3.20;99.90
23991;DHT22;12205;50.600;4.608;2024-03-25T00:22:44;3.20;99.90
23991;DHT22;12205;50.600;4.608;2024-03-25T00:25:11;3.20;99.90
23991;DHT22;12205;50.600;4.608;2024-03-25T00:27:37;3.20;99.90
23991;DHT22;12205;50.600;4.608;2024-03-25T00:30:05;3.10;99.90
23991;DHT22;12205;50.600;4.608;2024-03-25T00:32:31;3.20;99.90
23991;DHT22;12205;50.600;4.608;2024-03-25T00:34:59;3.20;99.90
23991;DHT22;12205;50.600;4.608;2024-03-25T00:37:25;3.10;99.90
23991;DHT22;12205;50.600;4.608;2024-03-25T00:39:52;3.10;99.90
23991;DHT22;12205;50.600;4.608;2024-03-25T00:42:18;3.10;99.90
23991;DHT22;12205;50.600;4.608;2024-03-25T00:44:45;3.10;99.90
23991;DHT22;12205;50.600;4.608;2024-03-25T00:47:11;3.00;99.90
23991;DHT22;12205;50.600;4.608;2024-03-25T00:49:38;3.00;99.90
23991;DHT22;12205;50.600;4.608;2024-03-25T00:52:05;2.90;99.90
23991;DHT22;12205;50.600;4.608;2024-03-25T00:54:32;2.90;99.90
23991;DHT22;12205;50.600;4.608;2024-03-25T00:56:58;2.90;99.90
23991;DHT22;12205;50.600;4.608;2024-03-25T00:59:25;2.80;99.90
23991;DHT22;12205;50.600;4.608;2024-03-25T01:01:51;2.80;99.90
23991;DHT22;12205;50.600;4.608;2024-03-25T01:04:18;2.70;99.90
23991;DHT22;12205;50.600;4.608;2024-03-25T01:06:44;2.70;99.90
23991;DHT22;12205;50.600;4.608;2024-03-25T01:09:12;2.70;99.90
23991;DHT22;12205;50.600;4.608;2024-03-25T01:11:38;2.60;99.90
23991;DHT22;12205;50.600;4.608;2024-03-25T01:14:05;2.60;99.90
23991;DHT22;12205;50.600;4.608;2024-03-25T01:16:31;2.60;99.90
23991;DHT22;12205;50.600;4.608;2024-03-25T01:18:59;2.60;99.90
23991;DHT22;12205;50.600;4.608;2024-03-25T01:21:25;2.60;99.90
23991;DHT22;12205;50.600;4.608;2024-03-25T01:23:51;2.50;99.90
23991;DHT22;12205;50.600;4.608;2024-03-25T01:26:19;2.60;99.90
23991;DHT22;12205;50.600;4.608;2024-03-25T01:28:46;2.50;99.90
23991;DHT22;12205;50.600;4.608;2024-03-25T01:31:12;2.50;99.90
23991;DHT22;12205;50.600;4.608;2024-03-25T01:33:39;2.50;99.90
23991;DHT22;12205;50.600;4.608;2024-03-25T01:36:05;2.50;99.90
23991;DHT22;12205;50.600;4.608;2024-03-25T01:38:32;2.50;99.90
23991;DHT22;12205;50.600;4.608;2024-03-25T01:41:07;2.50;99.90
23991;DHT22;12205;50.600;4.608;2024-03-25T01:43:36;2.50;99.90
23991;DHT22;12205;50.600;4.608;2024-03-25T01:46:02;2.40;99.90
23991;DHT22;12205;50.600;4.608;2024-03-25T01:48:31;2.50;99.90
23991;DHT22;12205;50.600;4.608;2024-03-25T01:50:58;2.40;99.90
23991;DHT22;12205;50.600;4.608;2024-03-25T01:53:25;2.40;99.90
23991;DHT22;12205;50.600;4.608;2024-03-25T01:55:55;2.50;99.90
23991;DHT22;12205;50.600;4.608;2024-03-25T01:58:23;2.50;99.90
23991;DHT22;12205;50.600;4.608;2024-03-25T02:00:50;2.60;99.90
23991;DHT22;12205;50.600;4.608;2024-03-25T02:03:18;2.60;99.90
23991;DHT22;12205;50.600;4.608;2024-03-25T02:05:44;2.70;99.90
23991;DHT22;12205;50.600;4.608;2024-03-25T02:08:11;2.80;99.90
23991;DHT22;12205;50.600;4.608;2024-03-25T02:10:38;2.90;99.90
23991;DHT22;12205;50.600;4.608;2024-03-25T02:13:05;3.00;99.90
23991;DHT22;12205;50.600;4.608;2024-03-25T02:15:32;3.00;99.90
23991;DHT22;12205;50.600;4.608;2024-03-25T02:18:01;3.10;99.90
23991;DHT22;12205;50.600;4.608;2024-03-25T02:20:27;3.10;99.90
23991;DHT22;12205;50.600;4.608;2024-03-25T02:22:55;3.00;99.90
23991;DHT22;12205;50.600;4.608;2024-03-25T02:25:21;3.10;99.90
23991;DHT22;12205;50.600;4.608;2024-03-25T02:27:50;3.10;99.90
23991;DHT22;12205;50.600;4.608;2024-03-25T02:30:16;3.10;99.90
23991;DHT22;12205;50.600;4.608;2024-03-25T02:32:42;3.00;99.90
23991;DHT22;12205;50.600;4.608;2024-03-25T02:35:10;3.00;99.90
23991;DHT22;12205;50.600;4.608;2024-03-25T02:37:39;3.00;99.90
23991;DHT22;12205;50.600;4.608;2024-03-25T02:40:08;3.00;99.90
23991;DHT22;12205;50.600;4.608;2024-03-25T02:42:37;3.00;99.90
23991;DHT22;12205;50.600;4.608;2024-03-25T02:45:08;2.90;99.90
23991;DHT22;12205;50.600;4.608;2024-03-25T02:47:35;3.00;99.90
23991;DHT22;12205;50.600;4.608;2024-03-25T02:50:01;3.00;99.90
23991;DHT22;12205;50.600;4.608;2024-03-25T02:52:27;3.00;99.90
23991;DHT22;12205;50.600;4.608;2024-03-25T02:54:53;3.10;99.90
23991;DHT22;12205;50.600;4.608;2024-03-25T02:57:20;3.20;99.90
23991;DHT22;12205;50.600;4.608;2024-03-25T02:59:47;3.20;99.90
23991;DHT22;12205;50.600;4.608;2024-03-25T03:02:15;3.20;99.90
23991;DHT22;12205;50.600;4.608;2024-03-25T03:04:41;3.20;99.90
23991;DHT22;12205;50.600;4.608;2024-03-25T03:07:07;3.20;99.90
23991;DHT22;12205;50.600;4.608;2024-03-25T03:09:33;3.20;99.90
23991;DHT22;12205;50.600;4.608;2024-03-25T03:12:00;3.10;99.90
23991;DHT22;12205;50.600;4.608;2024-03-25T03:14:26;3.10;99.90
23991;DHT22;12205;50.600;4.608;2024-03-25T03:16:53;3.30;99.90
23991;DHT22;12205;50.600;4.608;2024-03-25T03:19:21;3.40;99.90
23991;DHT22;12205;50.600;4.608;2024-03-25T03:21:48;3.50;99.90
23991;DHT22;12205;50.600;4.608;2024-03-25T03:24:14;3.60;99.90
23991;DHT22;12205;50.600;4.608;2024-03-25T03:26:41;3.60;99.90
23991;DHT22;12205;50.600;4.608;2024-03-25T03:29:07;3.60;99.90
23991;DHT22;12205;50.600;4.608;2024-03-25T03:31:34;3.60;99.90
23991;DHT22;12205;50.600;4.608;2024-03-25T03:34:01;3.60;99.90
23991;DHT22;12205;50.600;4.608;2024-03-25T03:36:29;3.70;99.90
23991;DHT22;12205;50.600;4.608;2024-03-25T03:38:55;3.70;99.90
23991;DHT22;12205;50.600;4.608;2024-03-25T03:41:22;3.60;99.90
23991;DHT22;12205;50.600;4.608;2024-03-25T03:43:48;3.60;99.90
23991;DHT22;12205;50.600;4.608;2024-03-25T03:46:15;3.50;99.90
23991;DHT22;12205;50.600;4.608;2024-03-25T03:48:41;3.40;99.90
23991;DHT22;12205;50.600;4.608;2024-03-25T03:51:08;3.30;99.90
23991;DHT22;12205;50.600;4.608;2024-03-25T03:53:35;3.30;99.90
23991;DHT22;12205;50.600;4.608;2024-03-25T03:56:04;3.20;99.90
23991;DHT22;12205;50.600;4.608;2024-03-25T03:58:31;3.20;99.90
23991;DHT22;12205;50.600;4.608;2024-03-25T04:00:58;3.20;99.90
23991;DHT22;12205;50.600;4.608;2024-03-25T04:03:24;3.20;99.90
23991;DHT22;12205;50.600;4.608;2024-03-25T04:05:51;3.10;99.90
23991;DHT22;12205;50.600;4.608;2024-03-25T04:08:17;3.00;99.90
23991;DHT22;12205;50.600;4.608;2024-03-25T04:10:45;3.00;99.90
23991;DHT22;12205;50.600;4.608;2024-03-25T04:13:12;3.00;99.90
23991;DHT22;12205;50.600;4.608;2024-03-25T04:15:40;2.90;99.90
23991;DHT22;12205;50.600;4.608;2024-03-25T04:18:06;2.90;99.90
23991;DHT22;12205;50.600;4.608;2024-03-25T04:20:36;2.90;99.90
23991;DHT22;12205;50.600;4.608;2024-03-25T04:23:02;2.80;99.90
23991;DHT22;12205;50.600;4.608;2024-03-25T04:25:29;2.80;99.90
23991;DHT22;12205;50.600;4.608;2024-03-25T04:27:57;2.80;99.90
23991;DHT22;12205;50.600;4.608;2024-03-25T04:30:24;2.90;99.90
23991;DHT22;12205;50.600;4.608;2024-03-25T04:32:50;2.80;99.90
23991;DHT22;12205;50.600;4.608;2024-03-25T04:35:17;2.80;99.90
23991;DHT22;12205;50.600;4.608;2024-03-25T04:37:43;2.90;99.90
23991;DHT22;12205;50.600;4.608;2024-03-25T04:40:10;2.90;99.90
23991;DHT22;12205;50.600;4.608;2024-03-25T04:42:37;2.90;99.90
23991;DHT22;12205;50.600;4.608;2024-03-25T04:45:05;2.90;99.90
23991;DHT22;12205;50.600;4.608;2024-03-25T04:47:31;2.90;99.90
23991;DHT22;12205;50.600;4.608;2024-03-25T04:49:57;2.90;99.90
23991;DHT22;12205;50.600;4.608;2024-03-25T04:52:23;2.80;99.90
23991;DHT22;12205;50.600;4.608;2024-03-25T04:54:49;2.80;99.90
23991;DHT22;12205;50.600;4.608;2024-03-25T04:57:16;2.80;99.90
23991;DHT22;12205;50.600;4.608;2024-03-25T04:59:41;2.80;99.90
23991;DHT22;12205;50.600;4.608;2024-03-25T05:02:09;2.70;99.90
23991;DHT22;12205;50.600;4.608;2024-03-25T05:04:35;2.60;99.90
23991;DHT22;12205;50.600;4.608;2024-03-25T05:07:01;2.60;99.90
23991;DHT22;12205;50.600;4.608;2024-03-25T05:09:27;2.50;99.90
23991;DHT22;12205;50.600;4.608;2024-03-25T05:11:53;2.60;99.90
23991;DHT22;12205;50.600;4.608;2024-03-25T05:14:19;2.50;99.90
23991;DHT22;12205;50.600;4.608;2024-03-25T05:16:45;2.50;99.90
23991;DHT22;12205;50.600;4.608;2024-03-25T05:19:12;2.50;99.90
23991;DHT22;12205;50.600;4.608;2024-03-25T05:21:38;2.60;99.90
23991;DHT22;12205;50.600;4.608;2024-03-25T05:24:04;2.50;99.90
23991;DHT22;12205;50.600;4.608;2024-03-25T05:26:30;2.50;99.90
23991;DHT22;12205;50.600;4.608;2024-03-25T05:28:56;2.50;99.90
23991;DHT22;12205;50.600;4.608;2024-03-25T05:31:23;2.40;99.90
23991;DHT22;12205;50.600;4.608;2024-03-25T05:33:49;2.40;99.90
23991;DHT22;12205;50.600;4.608;2024-03-25T05:36:16;2.40;99.90
23991;DHT22;12205;50.600;4.608;2024-03-25T05:38:42;2.40;99.90
23991;DHT22;12205;50.600;4.608;2024-03-25T05:41:09;2.40;99.90
23991;DHT22;12205;50.600;4.608;2024-03-25T05:43:35;2.50;99.90
23991;DHT22;12205;50.600;4.608;2024-03-25T05:46:01;2.40;99.90
23991;DHT22;12205;50.600;4.608;2024-03-25T05:48:28;2.50;99.90
23991;DHT22;12205;50.600;4.608;2024-03-25T05:50:59;2.50;99.90
23991;DHT22;12205;50.600;4.608;2024-03-25T05:53:26;2.50;99.90
23991;DHT22;12205;50.600;4.608;2024-03-25T05:55:52;2.60;99.90
23991;DHT22;12205;50.600;4.608;2024-03-25T05:58:19;2.80;99.90
23991;DHT22;12205;50.600;4.608;2024-03-25T06:00:47;2.80;99.90
23991;DHT22;12205;50.600;4.608;2024-03-25T06:03:13;2.90;99.90
23991;DHT22;12205;50.600;4.608;2024-03-25T06:05:39;3.00;99.90
23991;DHT22;12205;50.600;4.608;2024-03-25T06:08:06;3.10;99.90
23991;DHT22;12205;50.600;4.608;2024-03-25T06:10:36;3.30;99.90
23991;DHT22;12205;50.600;4.608;2024-03-25T06:13:03;3.40;99.90
23991;DHT22;12205;50.600;4.608;2024-03-25T06:15:29;3.50;99.90
23991;DHT22;12205;50.600;4.608;2024-03-25T06:17:55;3.70;99.90
23991;DHT22;12205;50.600;4.608;2024-03-25T06:20:21;3.80;99.90
23991;DHT22;12205;50.600;4.608;2024-03-25T06:22:47;4.00;99.90
23991;DHT22;12205;50.600;4.608;2024-03-25T06:25:13;4.30;99.90
23991;DHT22;12205;50.600;4.608;2024-03-25T06:27:40;4.50;99.90
23991;DHT22;12205;50.600;4.608;2024-03-25T06:30:07;4.70;99.90
23991;DHT22;12205;50.600;4.608;2024-03-25T06:32:51;4.80;99.90
23991;DHT22;12205;50.600;4.608;2024-03-25T06:35:36;4.80;99.90
23991;DHT22;12205;50.600;4.608;2024-03-25T06:38:02;4.80;99.90
23991;DHT22;12205;50.600;4.608;2024-03-25T06:40:29;4.90;99.90
23991;DHT22;12205;50.600;4.608;2024-03-25T06:42:56;4.90;99.90
23991;DHT22;12205;50.600;4.608;2024-03-25T06:45:23;5.10;99.90
23991;DHT22;12205;50.600;4.608;2024-03-25T06:47:48;5.10;99.90
23991;DHT22;12205;50.600;4.608;2024-03-25T06:50:14;5.10;99.90
23991;DHT22;12205;50.600;4.608;2024-03-25T06:52:40;5.30;99.90
23991;DHT22;12205;50.600;4.608;2024-03-25T06:55:07;5.40;99.90
23991;DHT22;12205;50.600;4.608;2024-03-25T06:57:33;5.50;99.90
23991;DHT22;12205;50.600;4.608;2024-03-25T07:00:01;5.60;99.90
23991;DHT22;12205;50.600;4.608;2024-03-25T07:02:27;5.80;99.90
23991;DHT22;12205;50.600;4.608;2024-03-25T07:04:53;5.80;99.90
23991;DHT22;12205;50.600;4.608;2024-03-25T07:07:19;5.90;99.90
23991;DHT22;12205;50.600;4.608;2024-03-25T07:09:44;5.90;99.90
23991;DHT22;12205;50.600;4.608;2024-03-25T07:12:10;5.90;99.90
23991;DHT22;12205;50.600;4.608;2024-03-25T07:14:36;6.00;99.90
23991;DHT22;12205;50.600;4.608;2024-03-25T07:17:04;6.00;99.90
23991;DHT22;12205;50.600;4.608;2024-03-25T07:19:30;6.10;99.90
23991;DHT22;12205;50.600;4.608;2024-03-25T07:21:56;6.10;99.90
23991;DHT22;12205;50.600;4.608;2024-03-25T07:24:22;6.10;99.90
23991;DHT22;12205;50.600;4.608;2024-03-25T07:26:48;6.10;99.90
23991;DHT22;12205;50.600;4.608;2024-03-25T07:29:14;6.20;99.90
23991;DHT22;12205;50.600;4.608;2024-03-25T07:31:40;6.20;99.90
23991;DHT22;12205;50.600;4.608;2024-03-25T07:34:07;6.20;99.90
23991;DHT22;12205;50.600;4.608;2024-03-25T07:36:33;6.30;99.90
23991;DHT22;12205;50.600;4.608;2024-03-25T07:38:59;6.30;99.90
23991;DHT22;12205;50.600;4.608;2024-03-25T07:41:25;6.40;99.90
23991;DHT22;12205;50.600;4.608;2024-03-25T07:43:51;6.40;99.90
23991;DHT22;12205;50.600;4.608;2024-03-25T07:46:17;6.50;99.90
23991;DHT22;12205;50.600;4.608;2024-03-25T07:48:43;6.40;99.90
23991;DHT22;12205;50.600;4.608;2024-03-25T07:51:11;6.50;99.90
23991;DHT22;12205;50.600;4.608;2024-03-25T07:53:37;6.50;99.90
23991;DHT22;12205;50.600;4.608;2024-03-25T07:56:04;6.60;99.90
23991;DHT22;12205;50.600;4.608;2024-03-25T07:58:30;6.60;99.90
23991;DHT22;12205;50.600;4.608;2024-03-25T08:00:56;6.70;99.90
23991;DHT22;12205;50.600;4.608;2024-03-25T08:03:22;6.70;99.90
23991;DHT22;12205;50.600;4.608;2024-03-25T08:05:48;6.70;99.90
23991;DHT22;12205;50.600;4.608;2024-03-25T08:08:15;6.70;99.90
23991;DHT22;12205;50.600;4.608;2024-03-25T08:10:41;6.70;99.90
23991;DHT22;12205;50.600;4.608;2024-03-25T08:13:08;6.80;99.90
23991;DHT22;12205;50.600;4.608;2024-03-25T08:15:34;6.90;99.90
23991;DHT22;12205;50.600;4.608;2024-03-25T08:18:00;6.90;99.90
23991;DHT22;12205;50.600;4.608;2024-03-25T08:20:26;6.80;99.90
23991;DHT22;12205;50.600;4.608;2024-03-25T08:22:52;6.90;99.90
23991;DHT22;12205;50.600;4.608;2024-03-25T08:25:19;7.00;99.90
23991;DHT22;12205;50.600;4.608;2024-03-25T08:27:45;7.10;99.90
23991;DHT22;12205;50.600;4.608;2024-03-25T08:30:11;7.20;99.90
23991;DHT22;12205;50.600;4.608;2024-03-25T08:32:37;7.20;99.90
23991;DHT22;12205;50.600;4.608;2024-03-25T08:35:04;7.30;99.90
23991;DHT22;12205;50.600;4.608;2024-03-25T08:37:30;7.40;99.90
23991;DHT22;12205;50.600;4.608;2024-03-25T08:39:57;7.40;99.90
23991;DHT22;12205;50.600;4.608;2024-03-25T08:42:25;7.40;99.90
23991;DHT22;12205;50.600;4.608;2024-03-25T08:44:51;7.50;99.90
23991;DHT22;12205;50.600;4.608;2024-03-25T08:47:17;7.60;99.90
23991;DHT22;12205;50.600;4.608;2024-03-25T08:49:42;7.60;99.90
23991;DHT22;12205;50.600;4.608;2024-03-25T08:52:08;7.70;99.90
23991;DHT22;12205;50.600;4.608;2024-03-25T08:54:37;7.60;99.90
23991;DHT22;12205;50.600;4.608;2024-03-25T08:57:03;7.70;99.90
23991;DHT22;12205;50.600;4.608;2024-03-25T08:59:30;7.70;99.90
23991;DHT22;12205;50.600;4.608;2024-03-25T09:01:56;7.80;99.90
23991;DHT22;12205;50.600;4.608;2024-03-25T09:04:22;7.80;99.90
23991;DHT22;12205;50.600;4.608;2024-03-25T09:06:48;7.90;99.90
23991;DHT22;12205;50.600;4.608;2024-03-25T09:09:14;8.00;99.90
23991;DHT22;12205;50.600;4.608;2024-03-25T09:11:58;8.00;99.90
23991;DHT22;12205;50.600;4.608;2024-03-25T09:14:24;8.00;99.90
23991;DHT22;12205;50.600;4.608;2024-03-25T09:16:51;8.00;99.90
23991;DHT22;12205;50.600;4.608;2024-03-25T09:19:17;8.10;99.90
23991;DHT22;12205;50.600;4.608;2024-03-25T09:21:43;8.10;99.90
23991;DHT22;12205;50.600;4.608;2024-03-25T09:24:09;8.20;99.90
23991;DHT22;12205;50.600;4.608;2024-03-25T09:26:35;8.20;99.90
23991;DHT22;12205;50.600;4.608;2024-03-25T09:29:01;8.20;99.90
23991;DHT22;12205;50.600;4.608;2024-03-25T09:31:27;8.30;99.90
23991;DHT22;12205;50.600;4.608;2024-03-25T09:33:55;8.30;99.90
23991;DHT22;12205;50.600;4.608;2024-03-25T09:36:21;8.40;99.90
23991;DHT22;12205;50.600;4.608;2024-03-25T09:38:48;8.40;99.90
23991;DHT22;12205;50.600;4.608;2024-03-25T09:41:14;8.50;99.90
23991;DHT22;12205;50.600;4.608;2024-03-25T09:43:43;8.60;99.90
23991;DHT22;12205;50.600;4.608;2024-03-25T09:46:10;8.70;99.90
23991;DHT22;12205;50.600;4.608;2024-03-25T09:48:36;8.70;99.90
23991;DHT22;12205;50.600;4.608;2024-03-25T09:51:04;8.80;99.90
23991;DHT22;12205;50.600;4.608;2024-03-25T09:53:30;8.90;99.90
23991;DHT22;12205;50.600;4.608;2024-03-25T09:55:57;8.90;99.90
23991;DHT22;12205;50.600;4.608;2024-03-25T09:58:25;9.00;99.90
23991;DHT22;12205;50.600;4.608;2024-03-25T10:00:52;9.10;99.90
23991;DHT22;12205;50.600;4.608;2024-03-25T10:03:18;9.20;99.90
23991;DHT22;12205;50.600;4.608;2024-03-25T10:05:44;9.20;99.90
23991;DHT22;12205;50.600;4.608;2024-03-25T10:08:11;9.30;99.90
23991;DHT22;12205;50.600;4.608;2024-03-25T10:10:37;9.30;99.90
23991;DHT22;12205;50.600;4.608;2024-03-25T10:13:03;9.30;99.90
23991;DHT22;12205;50.600;4.608;2024-03-25T10:15:29;9.30;99.90
23991;DHT22;12205;50.600;4.608;2024-03-25T10:17:55;9.30;99.90
23991;DHT22;12205;50.600;4.608;2024-03-25T10:20:21;9.30;99.90
23991;DHT22;12205;50.600;4.608;2024-03-25T10:22:48;9.40;99.90
23991;DHT22;12205;50.600;4.608;2024-03-25T10:25:23;9.60;99.90
23991;DHT22;12205;50.600;4.608;2024-03-25T10:27:56;9.60;99.90
23991;DHT22;12205;50.600;4.608;2024-03-25T10:30:22;9.80;99.90
23991;DHT22;12205;50.600;4.608;2024-03-25T10:32:58;9.80;99.90
23991;DHT22;12205;50.600;4.608;2024-03-25T10:35:27;9.90;99.90
23991;DHT22;12205;50.600;4.608;2024-03-25T10:37:55;9.90;99.90
23991;DHT22;12205;50.600;4.608;2024-03-25T10:40:27;10.00;99.90
23991;DHT22;12205;50.600;4.608;2024-03-25T10:42:56;10.10;99.90
23991;DHT22;12205;50.600;4.608;2024-03-25T10:45:26;10.20;99.90
23991;DHT22;12205;50.600;4.608;2024-03-25T10:47:53;10.30;99.90
23991;DHT22;12205;50.600;4.608;2024-03-25T10:50:28;10.40;99.90
23991;DHT22;12205;50.600;4.608;2024-03-25T10:52:54;10.50;99.90
23991;DHT22;12205;50.600;4.608;2024-03-25T10:55:21;10.60;99.90
23991;DHT22;12205;50.600;4.608;2024-03-25T10:57:49;10.60;99.90
23991;DHT22;12205;50.600;4.608;2024-03-25T11:00:16;10.60;99.90
23991;DHT22;12205;50.600;4.608;2024-03-25T11:02:43;10.70;99.90
23991;DHT22;12205;50.600;4.608;2024-03-25T11:05:10;10.80;99.90
23991;DHT22;12205;50.600;4.608;2024-03-25T11:07:37;11.00;99.90
23991;DHT22;12205;50.600;4.608;2024-03-25T11:10:05;11.10;99.90
23991;DHT22;12205;50.600;4.608;2024-03-25T11:12:35;11.30;99.90
23991;DHT22;12205;50.600;4.608;2024-03-25T11:15:04;11.40;99.90
23991;DHT22;12205;50.600;4.608;2024-03-25T11:17:31;11.40;99.90
23991;DHT22;12205;50.600;4.608;2024-03-25T11:20:11;11.40;99.90
23991;DHT22;12205;50.600;4.608;2024-03-25T11:22:48;11.50;99.90
23991;DHT22;12205;50.600;4.608;2024-03-25T11:25:14;11.80;99.90
23991;DHT22;12205;50.600;4.608;2024-03-25T11:27:43;11.90;99.90
23991;DHT22;12205;50.600;4.608;2024-03-25T11:30:11;12.20;99.90
23991;DHT22;12205;50.600;4.608;2024-03-25T11:32:51;12.40;99.90
23991;DHT22;12205;50.600;4.608;2024-03-25T11:35:17;12.50;99.90
23991;DHT22;12205;50.600;4.608;2024-03-25T11:37:43;12.60;99.90
23991;DHT22;12205;50.600;4.608;2024-03-25T11:40:10;12.70;99.90
23991;DHT22;12205;50.600;4.608;2024-03-25T11:42:38;12.80;99.90
23991;DHT22;12205;50.600;4.608;2024-03-25T11:45:05;12.70;99.90
23991;DHT22;12205;50.600;4.608;2024-03-25T11:47:32;12.70;99.90
23991;DHT22;12205;50.600;4.608;2024-03-25T11:49:59;12.60;99.90
23991;DHT22;12205;50.600;4.608;2024-03-25T11:52:29;12.60;99.90
23991;DHT22;12205;50.600;4.608;2024-03-25T11:54:56;12.90;99.90
23991;DHT22;12205;50.600;4.608;2024-03-25T11:57:22;13.10;99.90
23991;DHT22;12205;50.600;4.608;2024-03-25T11:59:48;13.60;99.90
23991;DHT22;12205;50.600;4.608;2024-03-25T12:02:15;14.10;99.90
23991;DHT22;12205;50.600;4.608;2024-03-25T12:04:44;14.40;99.90
23991;DHT22;12205;50.600;4.608;2024-03-25T12:07:12;14.60;99.90
23991;DHT22;12205;50.600;4.608;2024-03-25T12:09:38;14.80;99.90
23991;DHT22;12205;50.600;4.608;2024-03-25T12:12:22;15.00;99.90
23991;DHT22;12205;50.600;4.608;2024-03-25T12:14:49;15.30;99.90
23991;DHT22;12205;50.600;4.608;2024-03-25T12:17:15;15.10;99.90
23991;DHT22;12205;50.600;4.608;2024-03-25T12:19:45;15.60;99.90
23991;DHT22;12205;50.600;4.608;2024-03-25T12:22:24;18.20;99.90
23991;DHT22;12205;50.600;4.608;2024-03-25T12:24:50;22.30;99.90
23991;DHT22;12205;50.600;4.608;2024-03-25T12:27:16;23.10;97.30
23991;DHT22;12205;50.600;4.608;2024-03-25T12:29:42;21.00;96.40
23991;DHT22;12205;50.600;4.608;2024-03-25T12:32:09;22.20;99.00
23991;DHT22;12205;50.600;4.608;2024-03-25T12:34:35;22.50;95.10
23991;DHT22;12205;50.600;4.608;2024-03-25T12:37:03;20.70;96.60
23991;DHT22;12205;50.600;4.608;2024-03-25T12:39:29;19.70;96.80
23991;DHT22;12205;50.600;4.608;2024-03-25T12:41:55;19.50;97.70
23991;DHT22;12205;50.600;4.608;2024-03-25T12:44:21;18.60;98.10
23991;DHT22;12205;50.600;4.608;2024-03-25T12:46:47;18.90;97.40
23991;DHT22;12205;50.600;4.608;2024-03-25T12:49:13;22.10;96.20
23991;DHT22;12205;50.600;4.608;2024-03-25T12:51:39;20.50;95.50
23991;DHT22;12205;50.600;4.608;2024-03-25T12:54:06;21.20;97.70
23991;DHT22;12205;50.600;4.608;2024-03-25T12:56:32;24.80;94.10
23991;DHT22;12205;50.600;4.608;2024-03-25T12:58:58;27.60;88.70
23991;DHT22;12205;50.600;4.608;2024-03-25T13:01:24;28.30;75.60
23991;DHT22;12205;50.600;4.608;2024-03-25T13:03:50;29.50;70.30
23991;DHT22;12205;50.600;4.608;2024-03-25T13:06:16;30.10;63.50
23991;DHT22;12205;50.600;4.608;2024-03-25T13:08:42;30.60;61.50
23991;DHT22;12205;50.600;4.608;2024-03-25T13:11:09;29.50;53.60
23991;DHT22;12205;50.600;4.608;2024-03-25T13:13:35;26.40;59.10
23991;DHT22;12205;50.600;4.608;2024-03-25T13:16:01;24.40;62.00
23991;DHT22;12205;50.600;4.608;2024-03-25T13:18:27;23.10;64.40
23991;DHT22;12205;50.600;4.608;2024-03-25T13:20:53;22.90;61.90
23991;DHT22;12205;50.600;4.608;2024-03-25T13:23:19;23.30;65.00
23991;DHT22;12205;50.600;4.608;2024-03-25T13:25:45;23.00;59.20
23991;DHT22;12205;50.600;4.608;2024-03-25T13:28:12;25.20;59.90
23991;DHT22;12205;50.600;4.608;2024-03-25T13:30:38;27.20;57.60
23991;DHT22;12205;50.600;4.608;2024-03-25T13:33:04;28.60;53.30
23991;DHT22;12205;50.600;4.608;2024-03-25T13:35:30;29.20;53.80
23991;DHT22;12205;50.600;4.608;2024-03-25T13:37:56;30.20;52.80
23991;DHT22;12205;50.600;4.608;2024-03-25T13:40:22;30.00;51.40
23991;DHT22;12205;50.600;4.608;2024-03-25T13:42:48;30.80;50.60
23991;DHT22;12205;50.600;4.608;2024-03-25T13:45:16;31.50;48.10
23991;DHT22;12205;50.600;4.608;2024-03-25T13:47:41;30.90;46.00
23991;DHT22;12205;50.600;4.608;2024-03-25T13:50:08;31.10;45.60
23991;DHT22;12205;50.600;4.608;2024-03-25T13:52:34;31.50;46.40
23991;DHT22;12205;50.600;4.608;2024-03-25T13:55:00;31.10;43.60
23991;DHT22;12205;50.600;4.608;2024-03-25T13:57:26;30.70;43.50
23991;DHT22;12205;50.600;4.608;2024-03-25T13:59:52;30.70;44.40
23991;DHT22;12205;50.600;4.608;2024-03-25T14:02:19;30.60;43.90
23991;DHT22;12205;50.600;4.608;2024-03-25T14:04:46;30.40;42.70
23991;DHT22;12205;50.600;4.608;2024-03-25T14:07:12;30.30;43.90
23991;DHT22;12205;50.600;4.608;2024-03-25T14:09:38;30.30;43.30
23991;DHT22;12205;50.600;4.608;2024-03-25T14:12:04;30.40;41.90
23991;DHT22;12205;50.600;4.608;2024-03-25T14:14:30;30.20;42.50
23991;DHT22;12205;50.600;4.608;2024-03-25T14:16:56;30.80;43.20
23991;DHT22;12205;50.600;4.608;2024-03-25T14:19:23;30.60;42.90
23991;DHT22;12205;50.600;4.608;2024-03-25T14:21:50;28.60;42.70
23991;DHT22;12205;50.600;4.608;2024-03-25T14:24:16;26.80;44.80
23991;DHT22;12205;50.600;4.608;2024-03-25T14:26:42;27.50;47.50
23991;DHT22;12205;50.600;4.608;2024-03-25T14:29:08;27.80;45.60
23991;DHT22;12205;50.600;4.608;2024-03-25T14:31:34;27.60;43.70
23991;DHT22;12205;50.600;4.608;2024-03-25T14:34:00;27.70;44.80
23991;DHT22;12205;50.600;4.608;2024-03-25T14:36:28;27.30;44.40
23991;DHT22;12205;50.600;4.608;2024-03-25T14:38:53;27.10;47.90
23991;DHT22;12205;50.600;4.608;2024-03-25T14:41:20;26.50;46.50
23991;DHT22;12205;50.600;4.608;2024-03-25T14:43:47;26.50;47.70
23991;DHT22;12205;50.600;4.608;2024-03-25T14:46:13;26.20;48.20
23991;DHT22;12205;50.600;4.608;2024-03-25T14:48:39;25.90;47.50
23991;DHT22;12205;50.600;4.608;2024-03-25T14:51:05;25.80;48.20
23991;DHT22;12205;50.600;4.608;2024-03-25T14:53:32;25.50;48.10
23991;DHT22;12205;50.600;4.608;2024-03-25T14:55:59;25.20;49.00
23991;DHT22;12205;50.600;4.608;2024-03-25T14:58:24;24.50;46.70
23991;DHT22;12205;50.600;4.608;2024-03-25T15:00:50;23.60;48.40
23991;DHT22;12205;50.600;4.608;2024-03-25T15:03:16;23.80;48.50
23991;DHT22;12205;50.600;4.608;2024-03-25T15:05:42;23.80;49.50
23991;DHT22;12205;50.600;4.608;2024-03-25T15:08:08;23.40;50.10
23991;DHT22;12205;50.600;4.608;2024-03-25T15:10:36;22.80;51.70
23991;DHT22;12205;50.600;4.608;2024-03-25T15:13:02;23.40;52.70
23991;DHT22;12205;50.600;4.608;2024-03-25T15:15:28;23.60;51.70
23991;DHT22;12205;50.600;4.608;2024-03-25T15:17:54;23.70;50.10
23991;DHT22;12205;50.600;4.608;2024-03-25T15:20:21;23.20;48.10
23991;DHT22;12205;50.600;4.608;2024-03-25T15:22:47;23.20;51.10
23991;DHT22;12205;50.600;4.608;2024-03-25T15:25:13;23.00;52.20
23991;DHT22;12205;50.600;4.608;2024-03-25T15:27:40;22.40;53.70
23991;DHT22;12205;50.600;4.608;2024-03-25T15:30:07;22.30;53.40
23991;DHT22;12205;50.600;4.608;2024-03-25T15:32:33;22.60;52.70
23991;DHT22;12205;50.600;4.608;2024-03-25T15:34:59;22.30;53.00
23991;DHT22;12205;50.600;4.608;2024-03-25T15:37:25;22.00;54.00